Station PGBP7 - 1631428 - Pago Bay, Guam Image indicating link to RSS feed of recent meteorological observations for station PGBP7


Conditions at PGBP7 as of
1718 GMT on 05/30/2024:
     

Click on the graph icon in the table below to see a time series plot of the last five days of that observation.

5-day plot - Wind Direction Wind Direction (WDIR): E ( 80 deg true )
5-day plot - Wind Speed Wind Speed (WSPD): 4.1 kts
5-day plot - Wind Gust Wind Gust (GST): 6.0 kts
5-day plot - Wind Speed at 10 Meters Wind Speed at 10 meters (WSPD10M): 3.9 kts
5-day plot - Wind Speed at 20 Meters Wind Speed at 20 meters (WSPD20M): 3.9 kts
5-day plot -  Wind Speed, Wind Gust and Atmospheric Pressure Combined plot of Wind Speed, Gust, and Air Pressure
NOS Water Level Observation Network Water Level
Previous observations
TIME
(GMT)
5-day plot - Wind Direction
WDIR
 
5-day plot - Wind Speed
WSPD
kts
5-day plot - Wind Gust
GST
kts
5-day plot - Wave Height
WVHT
ft
5-day plot - Dominant Wave Period
DPD
sec
5-day plot - Average Wave Period
APD
sec
5-day plot - Mean Wave Direction
MWD
 
5-day plot - Atmospheric Pressure
PRES
in
5-day plot - Pressure Tendency
PTDY
in
5-day plot - Air Temperature
ATMP
°F
5-day plot - Water Temperature
WTMP
°F
5-day plot - Dew Point
DEWP
°F
5-day plot - Salinity
SAL
psu
5-day plot - Visibility
VIS
nmi
5-day plot - Tide (above MLLW)
TIDE
ft
2024-05-30 1712 E 1.9 6.0------------
2024-05-30 1706 E 4.1 12.0------------
2024-05-30 1700ENE 5.1 8.9------------
2024-05-30 1654 E 2.9 7.0------------
2024-05-30 1648 NE 4.1 7.0------------
2024-05-30 1642 E 2.9 7.0------------
2024-05-30 1636 E 4.1 8.0------------
2024-05-30 1630 E 1.9 5.1------------
2024-05-30 1624 E 2.9 5.1------------
2024-05-30 1618ENE 4.1 8.0------------
2024-05-30 1612 E 1.9 5.1------------
2024-05-30 1606 E 1.9 5.1------------
2024-05-30 1600 E 4.1 7.0------------
2024-05-30 1554 E 1.9 6.0------------
2024-05-30 1548 E 1.9 5.1------------
2024-05-30 1542ENE 2.9 6.0------------
2024-05-30 1536 E 2.9 5.1------------
2024-05-30 1530 E 4.1 8.0------------
2024-05-30 1524 E 2.9 5.1------------
2024-05-30 1518 E 4.1 6.0------------
2024-05-30 1512 E 2.9 8.0------------
2024-05-30 1506ENE 2.9 7.0------------
2024-05-30 1500ENE 1.9 4.1------------
2024-05-30 1454 E 2.9 5.1------------
2024-05-30 1448 NE 2.9 6.0------------
2024-05-30 1442ENE 1.9 4.1------------
2024-05-30 1436 E 1.0 1.9------------
2024-05-30 1430- 0.0 5.1------------
2024-05-30 1424 NE 2.9 6.0------------
2024-05-30 1418ENE 6.0 12.0------------
2024-05-30 1412 E 2.9 7.0------------
2024-05-30 1406 E 1.9 6.0------------
2024-05-30 1400ENE 4.1 6.0------------
2024-05-30 1354ENE 2.9 8.0------------
2024-05-30 1348ESE 1.9 6.0------------
2024-05-30 1342ENE 4.1 6.0------------
2024-05-30 1336ENE 5.1 8.9------------
2024-05-30 1330 E 1.0 6.0------------
2024-05-30 1324 E 4.1 8.0------------
2024-05-30 1318ENE 4.1 8.0------------
2024-05-30 1312 E 4.1 8.0------------
2024-05-30 1306ESE 1.9 8.0------------
2024-05-30 1300 E 6.0 9.9------------
2024-05-30 1254ENE 2.9 8.0------------
2024-05-30 1248ENE 1.9 4.1------------
2024-05-30 1242 NE 4.1 6.0------------
2024-05-30 1236ENE 5.1 7.0------------
2024-05-30 1230 NE 2.9 6.0------------
2024-05-30 1224ENE 5.1 8.9------------
2024-05-30 1218ENE 6.0 11.1------------
2024-05-30 1212 NE 5.1 8.9------------
2024-05-30 1206ENE 4.1 11.1------------
2024-05-30 1200ENE 4.1 7.0------------
2024-05-30 1154 NE 7.0 9.9------------
2024-05-30 1148 NE 4.1 9.9------------
2024-05-30 1142ENE 5.1 8.9------------
2024-05-30 1136ENE 5.1 7.0------------
2024-05-30 1130 NE 5.1 9.9------------
2024-05-30 1124ENE 6.0 8.9------------
2024-05-30 1118ENE 5.1 8.0------------
2024-05-30 1112 E 2.9 7.0------------
2024-05-30 1106 NE 4.1 8.0------------
2024-05-30 1100ENE 4.1 7.0------------
2024-05-30 1054ENE 4.1 8.0------------
2024-05-30 1048ENE 5.1 8.9------------
2024-05-30 1042ENE 5.1 8.0------------
2024-05-30 1036ENE 6.0 9.9------------
2024-05-30 1030ENE 5.1 11.1------------
2024-05-30 1024ENE 6.0 8.9------------
2024-05-30 1018ENE 4.1 6.0------------
2024-05-30 1012ENE 5.1 8.0------------
2024-05-30 1006 NE 5.1 11.1------------
2024-05-30 1000ENE 6.0 8.0------------
2024-05-30 0954ENE 5.1 9.9------------
2024-05-30 0948ENE 5.1 8.9------------
2024-05-30 0942ENE 4.1 8.9------------
2024-05-30 0936ENE 6.0 9.9------------
2024-05-30 0930ENE 6.0 9.9------------
2024-05-30 0924ENE 4.1 9.9------------
2024-05-30 0918ENE 2.9 5.1------------
2024-05-30 0912ENE 1.9 7.0------------
2024-05-30 0906 E 6.0 12.0------------
2024-05-30 0900 E 5.1 8.9------------
2024-05-30 0854 NE 6.0 9.9------------
2024-05-30 0848ENE 5.1 8.9------------
2024-05-30 0842ENE 5.1 9.9------------
2024-05-30 0836ENE 6.0 9.9------------
2024-05-30 0830ENE 5.1 8.9------------
2024-05-30 0824ENE 6.0 9.9------------
2024-05-30 0818ENE 7.0 11.1------------
2024-05-30 0812 NE 8.0 13.0------------
2024-05-30 0806ENE 6.0 12.0------------
2024-05-30 0800ENE 6.0 11.1------------
2024-05-30 0754ENE 5.1 12.0------------
2024-05-30 0748ENE 6.0 8.9------------
2024-05-30 0742 NE 8.0 11.1------------
2024-05-30 0736ENE 7.0 12.0------------
2024-05-30 0730ENE 7.0 11.1------------
2024-05-30 0724ENE 7.0 12.0------------
2024-05-30 0718ENE 8.0 12.0------------
2024-05-30 0712ENE 6.0 12.0------------
2024-05-30 0706ENE 7.0 11.1------------
2024-05-30 0700ENE 8.0 12.0------------
2024-05-30 0654ENE 7.0 13.0------------
2024-05-30 0648ENE 7.0 12.0------------
2024-05-30 0642 E 6.0 8.9------------
2024-05-30 0636ENE 7.0 11.1------------
2024-05-30 0630 NE 7.0 8.9------------
2024-05-30 0624 NE 7.0 11.1------------
2024-05-30 0618 NE 5.1 9.9------------
2024-05-30 0612 E 5.1 8.9------------
2024-05-30 0606 E 4.1 11.1------------
2024-05-30 0600ENE 5.1 12.0------------
2024-05-30 0554 NE 5.1 11.1------------
2024-05-30 0548ENE 8.0 12.0------------
2024-05-30 0542ENE 7.0 12.0------------
2024-05-30 0536ENE 7.0 12.0------------
2024-05-30 0530ENE 8.0 12.0------------
2024-05-30 0524ENE 8.9 13.0------------
2024-05-30 0518ENE 7.0 12.0------------
2024-05-30 0512ENE 8.0 11.1------------
2024-05-30 0506ENE 6.0 12.0------------
2024-05-30 0500ENE 7.0 12.0------------
2024-05-30 0454ENE 7.0 12.0------------
2024-05-30 0448ENE 6.0 11.1------------
2024-05-30 0442ENE 6.0 12.0------------
2024-05-30 0436ENE 8.0 13.0------------
2024-05-30 0430 E 5.1 8.9------------
2024-05-30 0424 E 5.1 11.1------------
2024-05-30 0418 E 6.0 9.9------------
2024-05-30 0412 E 5.1 13.0------------
2024-05-30 0406 E 7.0 13.0------------
2024-05-30 0400 E 7.0 11.1------------
2024-05-30 0354ENE 8.0 12.0------------
2024-05-30 0348ENE 6.0 11.1------------
2024-05-30 0342 E 5.1 12.0------------
2024-05-30 0336ENE 7.0 14.0------------
2024-05-30 0330ENE 9.9 14.0------------
2024-05-30 0324ENE 5.1 11.1------------
2024-05-30 0318 NE 8.0 12.0------------
2024-05-30 0312ENE 8.9 14.0------------
2024-05-30 0306ENE 6.0 11.1------------
2024-05-30 0300 E 6.0 13.0------------
2024-05-30 0254ENE 6.0 8.9------------
2024-05-30 0248ENE 8.0 12.0------------
2024-05-30 0242ENE 7.0 12.0------------
2024-05-30 0236ENE 6.0 12.0------------
2024-05-30 0230ENE 9.9 13.0------------
2024-05-30 0224 NE 8.0 13.0------------
2024-05-30 0218 E 6.0 9.9------------
2024-05-30 0212ENE 8.0 13.0------------
2024-05-30 0206ENE 8.0 12.0------------
2024-05-30 0200ENE 6.0 11.1------------
2024-05-30 0154 E 5.1 8.9------------
2024-05-30 0148ENE 5.1 11.1------------
2024-05-30 0142ENE 8.9 13.0------------
2024-05-30 0136ENE 8.0 12.0------------
2024-05-30 0130ENE 6.0 13.0------------
2024-05-30 0124 NE 8.9 14.0------------
2024-05-30 0118ENE 9.9 13.0------------
2024-05-30 0112ENE 11.1 13.0------------
2024-05-30 0106ENE 8.0 13.0------------
2024-05-30 0100ENE 5.1 12.0------------
2024-05-30 0054ENE 8.9 11.1------------
2024-05-30 0048 NE 7.0 14.0------------
2024-05-30 0042ENE 8.0 12.0------------
2024-05-30 0036ENE 6.0 11.1------------
2024-05-30 0030 NE 8.0 12.0------------
2024-05-30 0024 NE 8.9 12.0------------
2024-05-30 0018ENE 7.0 11.1------------
2024-05-30 0012ENE 4.1 8.9------------
2024-05-30 0006 E 5.1 7.0------------
2024-05-30 0000ENE 5.1 8.0------------
2024-05-29 2354 E 6.0 8.9------------
2024-05-29 2348 E 6.0 9.9------------
2024-05-29 2342ESE 5.1 8.0------------
2024-05-29 2336 E 6.0 11.1------------
2024-05-29 2330 SE 4.1 6.0------------
2024-05-29 2324ENE 2.9 7.0------------
2024-05-29 2318 E 2.9 7.0------------
2024-05-29 2312ENE 4.1 8.9------------
2024-05-29 2306 NE 4.1 7.0------------
2024-05-29 2300 E 5.1 8.9------------
2024-05-29 2254 E 5.1 11.1------------
2024-05-29 2248 E 6.0 11.1------------
2024-05-29 2242 E 5.1 8.9------------
2024-05-29 2236ENE 5.1 12.0------------
2024-05-29 2230 E 6.0 8.9------------
2024-05-29 2224ENE 5.1 8.9------------
2024-05-29 2218 E 4.1 8.9------------
2024-05-29 2212 E 6.0 11.1------------
2024-05-29 2206 E 6.0 12.0------------
2024-05-29 2200ENE 5.1 11.1------------
2024-05-29 2154 E 5.1 13.0------------
2024-05-29 2148ENE 6.0 9.9------------
2024-05-29 2142 E 4.1 12.0------------
2024-05-29 2136ENE 7.0 11.1------------
2024-05-29 2130 E 5.1 12.0------------
2024-05-29 2124ENE 2.9 8.9------------
2024-05-29 2118ENE 4.1 8.0------------
2024-05-29 2112ENE 2.9 9.9------------
2024-05-29 2106ENE 5.1 11.1------------
2024-05-29 2100 NE 5.1 11.1------------
2024-05-29 2054 E 2.9 8.9------------
2024-05-29 2048ENE 1.9 6.0------------
2024-05-29 2042 E 4.1 9.9------------
2024-05-29 2036ENE 6.0 8.9------------
2024-05-29 2030ENE 4.1 8.0------------
2024-05-29 2024 E 4.1 8.0------------
2024-05-29 2018ENE 5.1 7.0------------
2024-05-29 2012ENE 4.1 11.1------------
2024-05-29 2006ENE 6.0 8.9------------
2024-05-29 2000 NE 6.0 11.1------------
2024-05-29 1954 NE 8.0 11.1------------
2024-05-29 1948 NE 4.1 8.9------------
2024-05-29 1942 E 4.1 7.0------------
2024-05-29 1936ENE 4.1 9.9------------
2024-05-29 1930ENE 4.1 8.0------------
2024-05-29 1924 E 1.9 5.1------------
2024-05-29 1918 E 1.9 6.0------------
2024-05-29 1912 NE 4.1 7.0------------
2024-05-29 1906 NE 1.9 7.0------------
2024-05-29 1900ENE 5.1 8.0------------
2024-05-29 1854 NE 4.1 6.0------------
2024-05-29 1848ENE 4.1 6.0------------
2024-05-29 1842ENE 5.1 8.0------------
2024-05-29 1836 NE 4.1 8.9------------
2024-05-29 1830 NE 4.1 5.1------------
2024-05-29 1824ENE 1.9 5.1------------
2024-05-29 1818 NE 2.9 5.1------------
2024-05-29 1812 NE 2.9 8.0------------
2024-05-29 1806ENE 4.1 7.0------------
2024-05-29 1800 NE 4.1 8.9------------
2024-05-29 1754ENE 7.0 9.9------------